Terminal Aerodrome Forecast
Issued by NWS

Home | Current Version | Previous Version | Text Only | Print | Product List | Glossary On
Versions: 1 2 3 4 5 6 7 8 9 10 11 12 13
000
FTUS45 KVEF 291723
TAFEED
TAF
KEED 291723Z 2918/3018 18006KT P6SM SKC
     FM292000 20012G18KT P6SM FEW100 FEW250
     FM300500 25010KT P6SM FEW250
     FM300800 29007KT P6SM FEW250
     FM301400 VRB06KT P6SM FEW250=

USA.gov is the U.S. government's official web portal to all federal, state and local government web resources and services.